sensor_id;sensor_type;location;lat;lon;timestamp;temperature;humidity
67901;DHT22;54700;51.796;10.956;2024-03-25T00:00:15;5.10;91.70
67901;DHT22;54700;51.796;10.956;2024-03-25T00:02:43;5.10;91.30
67901;DHT22;54700;51.796;10.956;2024-03-25T00:05:09;5.10;91.00
67901;DHT22;54700;51.796;10.956;2024-03-25T00:07:36;5.00;91.20
67901;DHT22;54700;51.796;10.956;2024-03-25T00:10:04;5.00;90.30
67901;DHT22;54700;51.796;10.956;2024-03-25T00:12:33;4.90;90.30
67901;DHT22;54700;51.796;10.956;2024-03-25T00:14:59;5.00;89.50
67901;DHT22;54700;51.796;10.956;2024-03-25T00:17:26;5.00;89.90
67901;DHT22;54700;51.796;10.956;2024-03-25T00:19:52;4.90;89.80
67901;DHT22;54700;51.796;10.956;2024-03-25T00:22:19;5.00;87.60
67901;DHT22;54700;51.796;10.956;2024-03-25T00:24:46;5.00;88.30
67901;DHT22;54700;51.796;10.956;2024-03-25T00:27:14;5.00;87.60
67901;DHT22;54700;51.796;10.956;2024-03-25T00:29:41;5.00;86.60
67901;DHT22;54700;51.796;10.956;2024-03-25T00:32:08;5.00;86.80
67901;DHT22;54700;51.796;10.956;2024-03-25T00:34:34;5.00;86.10
67901;DHT22;54700;51.796;10.956;2024-03-25T00:37:01;5.10;86.40
67901;DHT22;54700;51.796;10.956;2024-03-25T00:39:27;5.00;86.40
67901;DHT22;54700;51.796;10.956;2024-03-25T00:41:54;5.00;86.40
67901;DHT22;54700;51.796;10.956;2024-03-25T00:44:22;5.00;85.40
67901;DHT22;54700;51.796;10.956;2024-03-25T00:46:49;5.10;86.40
67901;DHT22;54700;51.796;10.956;2024-03-25T00:49:14;5.00;87.00
67901;DHT22;54700;51.796;10.956;2024-03-25T00:51:41;5.00;85.70
67901;DHT22;54700;51.796;10.956;2024-03-25T00:54:07;5.10;86.10
67901;DHT22;54700;51.796;10.956;2024-03-25T00:56:34;5.10;87.30
67901;DHT22;54700;51.796;10.956;2024-03-25T00:59:00;5.10;87.80
67901;DHT22;54700;51.796;10.956;2024-03-25T01:01:30;5.10;88.20
67901;DHT22;54700;51.796;10.956;2024-03-25T01:03:57;5.00;89.50
67901;DHT22;54700;51.796;10.956;2024-03-25T01:06:24;5.00;89.50
67901;DHT22;54700;51.796;10.956;2024-03-25T01:08:50;4.90;89.90
67901;DHT22;54700;51.796;10.956;2024-03-25T01:11:17;4.90;89.40
67901;DHT22;54700;51.796;10.956;2024-03-25T01:13:43;4.90;90.20
67901;DHT22;54700;51.796;10.956;2024-03-25T01:16:10;4.90;90.80
67901;DHT22;54700;51.796;10.956;2024-03-25T01:18:37;4.80;91.50
67901;DHT22;54700;51.796;10.956;2024-03-25T01:21:04;4.70;92.10
67901;DHT22;54700;51.796;10.956;2024-03-25T01:23:31;4.70;92.40
67901;DHT22;54700;51.796;10.956;2024-03-25T01:25:58;4.60;93.10
67901;DHT22;54700;51.796;10.956;2024-03-25T01:28:23;4.50;94.10
67901;DHT22;54700;51.796;10.956;2024-03-25T01:30:51;4.40;94.60
67901;DHT22;54700;51.796;10.956;2024-03-25T01:33:17;4.30;95.50
67901;DHT22;54700;51.796;10.956;2024-03-25T01:35:45;4.20;95.90
67901;DHT22;54700;51.796;10.956;2024-03-25T01:38:11;4.10;95.30
67901;DHT22;54700;51.796;10.956;2024-03-25T01:40:38;4.10;95.30
67901;DHT22;54700;51.796;10.956;2024-03-25T01:43:04;4.00;96.10
67901;DHT22;54700;51.796;10.956;2024-03-25T01:45:32;3.90;96.40
67901;DHT22;54700;51.796;10.956;2024-03-25T01:48:01;3.80;97.00
67901;DHT22;54700;51.796;10.956;2024-03-25T01:50:29;3.80;97.70
67901;DHT22;54700;51.796;10.956;2024-03-25T01:52:59;3.70;97.60
67901;DHT22;54700;51.796;10.956;2024-03-25T01:55:27;3.70;97.60
67901;DHT22;54700;51.796;10.956;2024-03-25T01:57:55;3.70;98.00
67901;DHT22;54700;51.796;10.956;2024-03-25T02:00:22;3.70;97.80
67901;DHT22;54700;51.796;10.956;2024-03-25T02:02:49;3.70;97.70
67901;DHT22;54700;51.796;10.956;2024-03-25T02:05:18;3.80;97.90
67901;DHT22;54700;51.796;10.956;2024-03-25T02:07:44;3.80;97.90
67901;DHT22;54700;51.796;10.956;2024-03-25T02:10:14;3.80;97.70
67901;DHT22;54700;51.796;10.956;2024-03-25T02:12:40;3.80;97.60
67901;DHT22;54700;51.796;10.956;2024-03-25T02:15:07;3.90;97.30
67901;DHT22;54700;51.796;10.956;2024-03-25T02:17:34;3.90;96.70
67901;DHT22;54700;51.796;10.956;2024-03-25T02:20:01;4.00;96.70
67901;DHT22;54700;51.796;10.956;2024-03-25T02:22:28;4.10;96.70
67901;DHT22;54700;51.796;10.956;2024-03-25T02:24:56;4.10;97.80
67901;DHT22;54700;51.796;10.956;2024-03-25T02:27:25;4.00;99.30
67901;DHT22;54700;51.796;10.956;2024-03-25T02:29:53;4.00;99.90
67901;DHT22;54700;51.796;10.956;2024-03-25T02:32:19;3.90;99.90
67901;DHT22;54700;51.796;10.956;2024-03-25T02:34:47;3.80;99.90
67901;DHT22;54700;51.796;10.956;2024-03-25T02:37:15;3.80;99.90
67901;DHT22;54700;51.796;10.956;2024-03-25T02:39:42;3.70;99.60
67901;DHT22;54700;51.796;10.956;2024-03-25T02:42:09;3.70;99.50
67901;DHT22;54700;51.796;10.956;2024-03-25T02:44:38;3.70;98.20
67901;DHT22;54700;51.796;10.956;2024-03-25T02:47:04;3.70;98.00
67901;DHT22;54700;51.796;10.956;2024-03-25T02:49:31;3.80;97.70
67901;DHT22;54700;51.796;10.956;2024-03-25T02:51:57;3.80;97.20
67901;DHT22;54700;51.796;10.956;2024-03-25T02:54:24;3.90;97.30
67901;DHT22;54700;51.796;10.956;2024-03-25T02:56:50;3.90;96.90
67901;DHT22;54700;51.796;10.956;2024-03-25T02:59:16;4.00;96.40
67901;DHT22;54700;51.796;10.956;2024-03-25T03:01:44;4.00;96.60
67901;DHT22;54700;51.796;10.956;2024-03-25T03:04:10;4.10;94.80
67901;DHT22;54700;51.796;10.956;2024-03-25T03:06:36;4.00;94.60
67901;DHT22;54700;51.796;10.956;2024-03-25T03:09:03;4.00;94.30
67901;DHT22;54700;51.796;10.956;2024-03-25T03:11:29;4.00;94.00
67901;DHT22;54700;51.796;10.956;2024-03-25T03:13:56;3.90;93.80
67901;DHT22;54700;51.796;10.956;2024-03-25T03:16:22;3.90;93.60
67901;DHT22;54700;51.796;10.956;2024-03-25T03:18:50;3.90;93.50
67901;DHT22;54700;51.796;10.956;2024-03-25T03:21:16;3.90;93.70
67901;DHT22;54700;51.796;10.956;2024-03-25T03:23:42;3.80;93.20
67901;DHT22;54700;51.796;10.956;2024-03-25T03:26:08;3.80;92.80
67901;DHT22;54700;51.796;10.956;2024-03-25T03:28:35;3.80;93.00
67901;DHT22;54700;51.796;10.956;2024-03-25T03:31:01;3.80;92.60
67901;DHT22;54700;51.796;10.956;2024-03-25T03:33:28;3.80;92.80
67901;DHT22;54700;51.796;10.956;2024-03-25T03:35:55;3.80;92.70
67901;DHT22;54700;51.796;10.956;2024-03-25T03:38:22;3.70;92.80
67901;DHT22;54700;51.796;10.956;2024-03-25T03:40:55;3.70;92.70
67901;DHT22;54700;51.796;10.956;2024-03-25T03:43:23;3.70;92.70
67901;DHT22;54700;51.796;10.956;2024-03-25T03:45:49;3.70;92.40
67901;DHT22;54700;51.796;10.956;2024-03-25T03:48:16;3.70;92.60
67901;DHT22;54700;51.796;10.956;2024-03-25T03:50:42;3.70;92.20
67901;DHT22;54700;51.796;10.956;2024-03-25T03:53:10;3.70;92.20
67901;DHT22;54700;51.796;10.956;2024-03-25T03:55:36;3.70;92.30
67901;DHT22;54700;51.796;10.956;2024-03-25T03:58:03;3.80;92.20
67901;DHT22;54700;51.796;10.956;2024-03-25T04:00:32;3.70;92.10
67901;DHT22;54700;51.796;10.956;2024-03-25T04:03:00;3.70;92.40
67901;DHT22;54700;51.796;10.956;2024-03-25T04:05:28;3.80;91.90
67901;DHT22;54700;51.796;10.956;2024-03-25T04:07:55;3.80;91.60
67901;DHT22;54700;51.796;10.956;2024-03-25T04:10:23;3.80;91.60
67901;DHT22;54700;51.796;10.956;2024-03-25T04:12:50;3.80;91.80
67901;DHT22;54700;51.796;10.956;2024-03-25T04:15:16;3.80;91.60
67901;DHT22;54700;51.796;10.956;2024-03-25T04:17:44;3.90;91.60
67901;DHT22;54700;51.796;10.956;2024-03-25T04:20:11;3.90;91.40
67901;DHT22;54700;51.796;10.956;2024-03-25T04:22:40;3.90;91.20
67901;DHT22;54700;51.796;10.956;2024-03-25T04:25:07;4.00;90.80
67901;DHT22;54700;51.796;10.956;2024-03-25T04:27:37;4.00;90.70
67901;DHT22;54700;51.796;10.956;2024-03-25T04:30:04;4.00;90.20
67901;DHT22;54700;51.796;10.956;2024-03-25T04:32:32;4.10;90.10
67901;DHT22;54700;51.796;10.956;2024-03-25T04:34:58;4.10;89.90
67901;DHT22;54700;51.796;10.956;2024-03-25T04:37:25;4.20;89.70
67901;DHT22;54700;51.796;10.956;2024-03-25T04:39:51;4.20;89.30
67901;DHT22;54700;51.796;10.956;2024-03-25T04:42:17;4.20;89.40
67901;DHT22;54700;51.796;10.956;2024-03-25T04:44:45;4.20;89.40
67901;DHT22;54700;51.796;10.956;2024-03-25T04:47:11;4.20;89.50
67901;DHT22;54700;51.796;10.956;2024-03-25T04:49:37;4.30;89.90
67901;DHT22;54700;51.796;10.956;2024-03-25T04:52:03;4.30;89.60
67901;DHT22;54700;51.796;10.956;2024-03-25T04:54:29;4.30;90.00
67901;DHT22;54700;51.796;10.956;2024-03-25T04:56:55;4.30;89.70
67901;DHT22;54700;51.796;10.956;2024-03-25T04:59:21;4.30;89.90
67901;DHT22;54700;51.796;10.956;2024-03-25T05:01:48;4.30;89.80
67901;DHT22;54700;51.796;10.956;2024-03-25T05:04:14;4.40;89.20
67901;DHT22;54700;51.796;10.956;2024-03-25T05:06:40;4.40;89.60
67901;DHT22;54700;51.796;10.956;2024-03-25T05:09:06;4.40;89.80
67901;DHT22;54700;51.796;10.956;2024-03-25T05:11:32;4.40;89.60
67901;DHT22;54700;51.796;10.956;2024-03-25T05:13:58;4.30;90.20
67901;DHT22;54700;51.796;10.956;2024-03-25T05:16:24;4.20;90.40
67901;DHT22;54700;51.796;10.956;2024-03-25T05:18:52;4.20;90.50
67901;DHT22;54700;51.796;10.956;2024-03-25T05:21:17;4.10;90.80
67901;DHT22;54700;51.796;10.956;2024-03-25T05:23:43;4.10;90.80
67901;DHT22;54700;51.796;10.956;2024-03-25T05:26:09;4.10;90.90
67901;DHT22;54700;51.796;10.956;2024-03-25T05:28:35;4.10;91.20
67901;DHT22;54700;51.796;10.956;2024-03-25T05:31:05;4.10;91.10
67901;DHT22;54700;51.796;10.956;2024-03-25T05:33:31;4.10;91.00
67901;DHT22;54700;51.796;10.956;2024-03-25T05:36:01;4.10;90.90
67901;DHT22;54700;51.796;10.956;2024-03-25T05:38:27;4.10;91.00
67901;DHT22;54700;51.796;10.956;2024-03-25T05:40:53;4.10;91.20
67901;DHT22;54700;51.796;10.956;2024-03-25T05:43:19;4.10;91.20
67901;DHT22;54700;51.796;10.956;2024-03-25T05:45:50;4.20;91.10
67901;DHT22;54700;51.796;10.956;2024-03-25T05:48:16;4.20;91.10
67901;DHT22;54700;51.796;10.956;2024-03-25T05:50:42;4.20;90.70
67901;DHT22;54700;51.796;10.956;2024-03-25T05:53:09;4.30;90.90
67901;DHT22;54700;51.796;10.956;2024-03-25T05:55:35;4.20;90.90
67901;DHT22;54700;51.796;10.956;2024-03-25T05:58:01;4.20;90.80
67901;DHT22;54700;51.796;10.956;2024-03-25T06:00:28;4.30;91.00
67901;DHT22;54700;51.796;10.956;2024-03-25T06:02:54;4.30;90.80
67901;DHT22;54700;51.796;10.956;2024-03-25T06:05:20;4.30;91.10
67901;DHT22;54700;51.796;10.956;2024-03-25T06:07:46;4.30;90.20
67901;DHT22;54700;51.796;10.956;2024-03-25T06:10:13;4.40;90.20
67901;DHT22;54700;51.796;10.956;2024-03-25T06:12:40;4.50;90.20
67901;DHT22;54700;51.796;10.956;2024-03-25T06:15:06;4.60;89.80
67901;DHT22;54700;51.796;10.956;2024-03-25T06:17:33;4.70;89.30
67901;DHT22;54700;51.796;10.956;2024-03-25T06:19:59;4.80;89.20
67901;DHT22;54700;51.796;10.956;2024-03-25T06:22:25;4.80;88.90
67901;DHT22;54700;51.796;10.956;2024-03-25T06:24:51;4.90;88.90
67901;DHT22;54700;51.796;10.956;2024-03-25T06:27:18;4.90;88.00
67901;DHT22;54700;51.796;10.956;2024-03-25T06:29:44;5.00;88.30
67901;DHT22;54700;51.796;10.956;2024-03-25T06:32:10;5.00;88.60
67901;DHT22;54700;51.796;10.956;2024-03-25T06:34:54;5.00;89.00
67901;DHT22;54700;51.796;10.956;2024-03-25T06:37:20;5.10;89.50
67901;DHT22;54700;51.796;10.956;2024-03-25T06:39:46;5.10;89.60
67901;DHT22;54700;51.796;10.956;2024-03-25T06:42:12;5.10;89.80
67901;DHT22;54700;51.796;10.956;2024-03-25T06:44:39;5.00;90.60
67901;DHT22;54700;51.796;10.956;2024-03-25T06:47:05;4.90;91.20
67901;DHT22;54700;51.796;10.956;2024-03-25T06:49:31;4.90;91.20
67901;DHT22;54700;51.796;10.956;2024-03-25T06:51:57;4.80;91.70
67901;DHT22;54700;51.796;10.956;2024-03-25T06:54:23;4.70;91.80
67901;DHT22;54700;51.796;10.956;2024-03-25T06:56:49;4.70;92.10
67901;DHT22;54700;51.796;10.956;2024-03-25T06:59:15;4.70;92.70
67901;DHT22;54700;51.796;10.956;2024-03-25T07:01:42;4.70;92.80
67901;DHT22;54700;51.796;10.956;2024-03-25T07:04:08;4.70;92.60
67901;DHT22;54700;51.796;10.956;2024-03-25T07:06:34;4.70;92.80
67901;DHT22;54700;51.796;10.956;2024-03-25T07:09:00;4.70;93.30
67901;DHT22;54700;51.796;10.956;2024-03-25T07:11:26;4.60;93.50
67901;DHT22;54700;51.796;10.956;2024-03-25T07:13:52;4.60;93.90
67901;DHT22;54700;51.796;10.956;2024-03-25T07:16:18;4.60;93.60
67901;DHT22;54700;51.796;10.956;2024-03-25T07:18:46;4.60;94.40
67901;DHT22;54700;51.796;10.956;2024-03-25T07:21:12;4.60;94.30
67901;DHT22;54700;51.796;10.956;2024-03-25T07:23:37;4.60;94.40
67901;DHT22;54700;51.796;10.956;2024-03-25T07:26:03;4.70;94.00
67901;DHT22;54700;51.796;10.956;2024-03-25T07:28:29;4.70;93.90
67901;DHT22;54700;51.796;10.956;2024-03-25T07:30:55;4.80;93.90
67901;DHT22;54700;51.796;10.956;2024-03-25T07:33:21;4.90;93.90
67901;DHT22;54700;51.796;10.956;2024-03-25T07:35:49;5.00;93.30
67901;DHT22;54700;51.796;10.956;2024-03-25T07:38:15;5.10;93.30
67901;DHT22;54700;51.796;10.956;2024-03-25T07:40:40;5.10;93.60
67901;DHT22;54700;51.796;10.956;2024-03-25T07:43:06;5.10;93.00
67901;DHT22;54700;51.796;10.956;2024-03-25T07:45:32;5.20;93.40
67901;DHT22;54700;51.796;10.956;2024-03-25T07:47:58;5.20;93.40
67901;DHT22;54700;51.796;10.956;2024-03-25T07:50:24;5.40;92.50
67901;DHT22;54700;51.796;10.956;2024-03-25T07:52:52;5.50;92.50
67901;DHT22;54700;51.796;10.956;2024-03-25T07:55:18;5.50;92.20
67901;DHT22;54700;51.796;10.956;2024-03-25T07:57:43;5.50;91.90
67901;DHT22;54700;51.796;10.956;2024-03-25T08:00:10;5.50;91.70
67901;DHT22;54700;51.796;10.956;2024-03-25T08:02:36;5.50;91.50
67901;DHT22;54700;51.796;10.956;2024-03-25T08:05:02;5.50;91.40
67901;DHT22;54700;51.796;10.956;2024-03-25T08:07:29;5.60;91.60
67901;DHT22;54700;51.796;10.956;2024-03-25T08:09:56;5.70;91.10
67901;DHT22;54700;51.796;10.956;2024-03-25T08:12:22;5.80;90.80
67901;DHT22;54700;51.796;10.956;2024-03-25T08:14:48;5.80;89.60
67901;DHT22;54700;51.796;10.956;2024-03-25T08:17:14;5.90;90.20
67901;DHT22;54700;51.796;10.956;2024-03-25T08:19:40;5.90;90.30
67901;DHT22;54700;51.796;10.956;2024-03-25T08:22:06;6.10;90.50
67901;DHT22;54700;51.796;10.956;2024-03-25T08:24:32;6.20;88.80
67901;DHT22;54700;51.796;10.956;2024-03-25T08:26:59;6.30;88.70
67901;DHT22;54700;51.796;10.956;2024-03-25T08:29:25;6.40;89.30
67901;DHT22;54700;51.796;10.956;2024-03-25T08:31:51;6.40;87.20
67901;DHT22;54700;51.796;10.956;2024-03-25T08:34:17;6.40;87.10
67901;DHT22;54700;51.796;10.956;2024-03-25T08:36:43;6.30;86.40
67901;DHT22;54700;51.796;10.956;2024-03-25T08:39:09;6.30;87.60
67901;DHT22;54700;51.796;10.956;2024-03-25T08:41:35;6.40;88.60
67901;DHT22;54700;51.796;10.956;2024-03-25T08:44:05;6.40;87.80
67901;DHT22;54700;51.796;10.956;2024-03-25T08:46:31;6.50;88.00
67901;DHT22;54700;51.796;10.956;2024-03-25T08:48:58;6.50;88.30
67901;DHT22;54700;51.796;10.956;2024-03-25T08:51:24;6.60;88.70
67901;DHT22;54700;51.796;10.956;2024-03-25T08:53:50;6.60;88.40
67901;DHT22;54700;51.796;10.956;2024-03-25T08:56:15;6.50;88.30
67901;DHT22;54700;51.796;10.956;2024-03-25T08:58:41;6.50;89.10
67901;DHT22;54700;51.796;10.956;2024-03-25T09:01:09;6.50;88.40
67901;DHT22;54700;51.796;10.956;2024-03-25T09:03:35;6.40;88.10
67901;DHT22;54700;51.796;10.956;2024-03-25T09:06:00;6.40;88.00
67901;DHT22;54700;51.796;10.956;2024-03-25T09:08:27;6.40;88.60
67901;DHT22;54700;51.796;10.956;2024-03-25T09:10:52;6.40;88.80
67901;DHT22;54700;51.796;10.956;2024-03-25T09:13:30;6.40;89.80
67901;DHT22;54700;51.796;10.956;2024-03-25T09:15:56;6.50;88.90
67901;DHT22;54700;51.796;10.956;2024-03-25T09:18:24;6.60;82.80
67901;DHT22;54700;51.796;10.956;2024-03-25T09:20:50;6.70;83.70
67901;DHT22;54700;51.796;10.956;2024-03-25T09:23:16;6.80;82.70
67901;DHT22;54700;51.796;10.956;2024-03-25T09:25:57;6.80;80.20
67901;DHT22;54700;51.796;10.956;2024-03-25T09:28:26;6.80;82.30
67901;DHT22;54700;51.796;10.956;2024-03-25T09:30:59;6.60;83.90
67901;DHT22;54700;51.796;10.956;2024-03-25T09:33:28;6.30;86.20
67901;DHT22;54700;51.796;10.956;2024-03-25T09:35:55;6.20;87.20
67901;DHT22;54700;51.796;10.956;2024-03-25T09:38:21;6.20;87.80
67901;DHT22;54700;51.796;10.956;2024-03-25T09:40:51;6.10;87.30
67901;DHT22;54700;51.796;10.956;2024-03-25T09:43:21;6.20;87.10
67901;DHT22;54700;51.796;10.956;2024-03-25T09:46:22;6.20;86.40
67901;DHT22;54700;51.796;10.956;2024-03-25T09:48:51;6.30;86.50
67901;DHT22;54700;51.796;10.956;2024-03-25T09:51:18;6.40;87.20
67901;DHT22;54700;51.796;10.956;2024-03-25T09:53:45;6.50;85.10
67901;DHT22;54700;51.796;10.956;2024-03-25T09:56:11;6.60;84.50
67901;DHT22;54700;51.796;10.956;2024-03-25T09:58:38;6.60;84.30
67901;DHT22;54700;51.796;10.956;2024-03-25T10:01:08;6.80;84.00
67901;DHT22;54700;51.796;10.956;2024-03-25T10:03:35;6.80;82.60
67901;DHT22;54700;51.796;10.956;2024-03-25T10:06:02;6.90;82.70
67901;DHT22;54700;51.796;10.956;2024-03-25T10:08:29;7.00;81.40
67901;DHT22;54700;51.796;10.956;2024-03-25T10:10:56;7.10;81.80
67901;DHT22;54700;51.796;10.956;2024-03-25T10:13:22;7.30;81.10
67901;DHT22;54700;51.796;10.956;2024-03-25T10:15:48;7.30;77.80
67901;DHT22;54700;51.796;10.956;2024-03-25T10:18:15;7.40;77.40
67901;DHT22;54700;51.796;10.956;2024-03-25T10:20:47;7.40;69.30
67901;DHT22;54700;51.796;10.956;2024-03-25T10:23:15;7.40;66.80
67901;DHT22;54700;51.796;10.956;2024-03-25T10:25:41;7.50;67.00
67901;DHT22;54700;51.796;10.956;2024-03-25T10:28:08;7.60;67.00
67901;DHT22;54700;51.796;10.956;2024-03-25T10:30:34;7.70;67.90
67901;DHT22;54700;51.796;10.956;2024-03-25T10:33:00;7.80;66.80
67901;DHT22;54700;51.796;10.956;2024-03-25T10:35:28;7.90;67.70
67901;DHT22;54700;51.796;10.956;2024-03-25T10:37:55;8.10;67.40
67901;DHT22;54700;51.796;10.956;2024-03-25T10:40:26;8.20;66.60
67901;DHT22;54700;51.796;10.956;2024-03-25T10:42:55;8.20;66.90
67901;DHT22;54700;51.796;10.956;2024-03-25T10:45:27;8.10;65.50
67901;DHT22;54700;51.796;10.956;2024-03-25T10:47:55;7.90;65.30
67901;DHT22;54700;51.796;10.956;2024-03-25T10:50:24;7.90;67.00
67901;DHT22;54700;51.796;10.956;2024-03-25T10:52:54;7.90;65.60
67901;DHT22;54700;51.796;10.956;2024-03-25T10:55:21;8.00;66.40
67901;DHT22;54700;51.796;10.956;2024-03-25T10:57:49;8.10;65.90
67901;DHT22;54700;51.796;10.956;2024-03-25T11:00:17;8.30;63.60
67901;DHT22;54700;51.796;10.956;2024-03-25T11:02:43;8.40;63.70
67901;DHT22;54700;51.796;10.956;2024-03-25T11:05:10;8.60;63.60
67901;DHT22;54700;51.796;10.956;2024-03-25T11:07:37;8.80;62.10
67901;DHT22;54700;51.796;10.956;2024-03-25T11:10:04;8.70;63.00
67901;DHT22;54700;51.796;10.956;2024-03-25T11:12:32;8.80;62.30
67901;DHT22;54700;51.796;10.956;2024-03-25T11:15:00;8.80;62.40
67901;DHT22;54700;51.796;10.956;2024-03-25T11:17:27;8.70;60.70
67901;DHT22;54700;51.796;10.956;2024-03-25T11:19:53;8.60;58.50
67901;DHT22;54700;51.796;10.956;2024-03-25T11:22:23;8.50;58.30
67901;DHT22;54700;51.796;10.956;2024-03-25T11:24:50;8.50;56.50
67901;DHT22;54700;51.796;10.956;2024-03-25T11:27:21;8.50;56.50
67901;DHT22;54700;51.796;10.956;2024-03-25T11:29:48;8.50;58.00
67901;DHT22;54700;51.796;10.956;2024-03-25T11:32:15;8.50;54.20
67901;DHT22;54700;51.796;10.956;2024-03-25T11:34:49;8.50;54.80
67901;DHT22;54700;51.796;10.956;2024-03-25T11:37:16;8.50;55.00
67901;DHT22;54700;51.796;10.956;2024-03-25T11:39:42;8.60;54.80
67901;DHT22;54700;51.796;10.956;2024-03-25T11:42:08;8.80;55.60
67901;DHT22;54700;51.796;10.956;2024-03-25T11:44:35;9.00;54.00
67901;DHT22;54700;51.796;10.956;2024-03-25T11:47:02;9.00;53.50
67901;DHT22;54700;51.796;10.956;2024-03-25T11:49:30;8.80;54.30
67901;DHT22;54700;51.796;10.956;2024-03-25T11:51:58;8.90;54.50
67901;DHT22;54700;51.796;10.956;2024-03-25T11:54:26;8.90;54.90
67901;DHT22;54700;51.796;10.956;2024-03-25T11:56:53;9.00;54.40
67901;DHT22;54700;51.796;10.956;2024-03-25T11:59:19;9.00;52.80
67901;DHT22;54700;51.796;10.956;2024-03-25T12:01:46;9.00;52.10
67901;DHT22;54700;51.796;10.956;2024-03-25T12:04:12;9.00;51.70
67901;DHT22;54700;51.796;10.956;2024-03-25T12:06:43;9.00;51.90
67901;DHT22;54700;51.796;10.956;2024-03-25T12:09:09;8.90;51.90
67901;DHT22;54700;51.796;10.956;2024-03-25T12:11:54;8.90;52.10
67901;DHT22;54700;51.796;10.956;2024-03-25T12:14:20;8.80;52.30
67901;DHT22;54700;51.796;10.956;2024-03-25T12:16:46;8.80;53.00
67901;DHT22;54700;51.796;10.956;2024-03-25T12:19:12;8.80;54.00
67901;DHT22;54700;51.796;10.956;2024-03-25T12:21:38;8.80;53.40
67901;DHT22;54700;51.796;10.956;2024-03-25T12:24:06;8.80;54.80
67901;DHT22;54700;51.796;10.956;2024-03-25T12:26:32;8.70;53.70
67901;DHT22;54700;51.796;10.956;2024-03-25T12:28:58;8.70;52.70
67901;DHT22;54700;51.796;10.956;2024-03-25T12:31:24;8.70;52.70
67901;DHT22;54700;51.796;10.956;2024-03-25T12:33:50;8.80;53.20
67901;DHT22;54700;51.796;10.956;2024-03-25T12:36:16;8.80;53.00
67901;DHT22;54700;51.796;10.956;2024-03-25T12:38:42;8.80;54.20
67901;DHT22;54700;51.796;10.956;2024-03-25T12:41:10;8.90;54.30
67901;DHT22;54700;51.796;10.956;2024-03-25T12:43:43;8.90;51.70
67901;DHT22;54700;51.796;10.956;2024-03-25T12:46:10;8.90;52.00
67901;DHT22;54700;51.796;10.956;2024-03-25T12:48:36;9.00;51.80
67901;DHT22;54700;51.796;10.956;2024-03-25T12:51:03;9.00;51.80
67901;DHT22;54700;51.796;10.956;2024-03-25T12:53:30;9.10;51.40
67901;DHT22;54700;51.796;10.956;2024-03-25T12:55:56;9.10;51.70
67901;DHT22;54700;51.796;10.956;2024-03-25T12:58:24;9.20;51.70
67901;DHT22;54700;51.796;10.956;2024-03-25T13:00:50;9.10;52.90
67901;DHT22;54700;51.796;10.956;2024-03-25T13:03:15;9.10;54.80
67901;DHT22;54700;51.796;10.956;2024-03-25T13:05:42;9.00;55.00
67901;DHT22;54700;51.796;10.956;2024-03-25T13:08:09;9.00;55.70
67901;DHT22;54700;51.796;10.956;2024-03-25T13:10:35;9.00;55.90
67901;DHT22;54700;51.796;10.956;2024-03-25T13:13:01;9.00;55.10
67901;DHT22;54700;51.796;10.956;2024-03-25T13:15:29;9.00;52.60
67901;DHT22;54700;51.796;10.956;2024-03-25T13:17:55;8.90;51.40
67901;DHT22;54700;51.796;10.956;2024-03-25T13:20:21;8.90;53.50
67901;DHT22;54700;51.796;10.956;2024-03-25T13:22:48;8.80;54.90
67901;DHT22;54700;51.796;10.956;2024-03-25T13:25:15;8.70;55.30
67901;DHT22;54700;51.796;10.956;2024-03-25T13:27:41;8.60;55.50
67901;DHT22;54700;51.796;10.956;2024-03-25T13:30:07;8.60;54.90
67901;DHT22;54700;51.796;10.956;2024-03-25T13:32:34;8.60;55.60
67901;DHT22;54700;51.796;10.956;2024-03-25T13:35:00;8.50;55.10
67901;DHT22;54700;51.796;10.956;2024-03-25T13:37:26;8.50;55.30
67901;DHT22;54700;51.796;10.956;2024-03-25T13:39:52;8.50;56.30
67901;DHT22;54700;51.796;10.956;2024-03-25T13:42:18;8.40;56.60
67901;DHT22;54700;51.796;10.956;2024-03-25T13:44:44;8.50;56.60
67901;DHT22;54700;51.796;10.956;2024-03-25T13:47:10;8.50;54.20
67901;DHT22;54700;51.796;10.956;2024-03-25T13:49:37;8.40;53.40
67901;DHT22;54700;51.796;10.956;2024-03-25T13:52:03;8.40;55.70
67901;DHT22;54700;51.796;10.956;2024-03-25T13:54:30;8.30;57.40
67901;DHT22;54700;51.796;10.956;2024-03-25T13:56:56;8.10;58.90
67901;DHT22;54700;51.796;10.956;2024-03-25T13:59:22;8.10;59.80
67901;DHT22;54700;51.796;10.956;2024-03-25T14:01:48;8.20;58.50
67901;DHT22;54700;51.796;10.956;2024-03-25T14:04:14;8.20;57.60
67901;DHT22;54700;51.796;10.956;2024-03-25T14:06:42;8.20;57.30
67901;DHT22;54700;51.796;10.956;2024-03-25T14:09:08;8.20;58.10
67901;DHT22;54700;51.796;10.956;2024-03-25T14:11:34;8.30;57.60
67901;DHT22;54700;51.796;10.956;2024-03-25T14:14:00;8.30;58.40
67901;DHT22;54700;51.796;10.956;2024-03-25T14:16:26;8.30;56.70
67901;DHT22;54700;51.796;10.956;2024-03-25T14:18:53;8.40;56.60
67901;DHT22;54700;51.796;10.956;2024-03-25T14:21:19;8.40;55.70
67901;DHT22;54700;51.796;10.956;2024-03-25T14:23:46;8.40;55.40
67901;DHT22;54700;51.796;10.956;2024-03-25T14:26:13;8.30;55.60
67901;DHT22;54700;51.796;10.956;2024-03-25T14:28:40;8.30;55.30
67901;DHT22;54700;51.796;10.956;2024-03-25T14:31:06;8.40;56.10
67901;DHT22;54700;51.796;10.956;2024-03-25T14:33:33;8.40;55.50
67901;DHT22;54700;51.796;10.956;2024-03-25T14:35:59;8.40;54.80
67901;DHT22;54700;51.796;10.956;2024-03-25T14:38:25;8.40;55.90
67901;DHT22;54700;51.796;10.956;2024-03-25T14:40:52;8.20;55.40
67901;DHT22;54700;51.796;10.956;2024-03-25T14:43:18;8.20;57.30
67901;DHT22;54700;51.796;10.956;2024-03-25T14:45:44;8.20;56.50
67901;DHT22;54700;51.796;10.956;2024-03-25T14:48:10;8.10;56.60
67901;DHT22;54700;51.796;10.956;2024-03-25T14:50:36;8.10;57.50
67901;DHT22;54700;51.796;10.956;2024-03-25T14:53:02;8.20;56.70
67901;DHT22;54700;51.796;10.956;2024-03-25T14:55:29;8.20;58.00
67901;DHT22;54700;51.796;10.956;2024-03-25T14:57:56;8.30;57.10
67901;DHT22;54700;51.796;10.956;2024-03-25T15:00:22;8.20;57.30
67901;DHT22;54700;51.796;10.956;2024-03-25T15:02:49;8.10;57.00
67901;DHT22;54700;51.796;10.956;2024-03-25T15:05:15;8.00;56.50
67901;DHT22;54700;51.796;10.956;2024-03-25T15:07:41;7.90;56.40
67901;DHT22;54700;51.796;10.956;2024-03-25T15:10:07;7.90;56.90
67901;DHT22;54700;51.796;10.956;2024-03-25T15:12:33;7.90;57.90
67901;DHT22;54700;51.796;10.956;2024-03-25T15:15:03;7.90;58.10
67901;DHT22;54700;51.796;10.956;2024-03-25T15:17:30;7.90;57.30
67901;DHT22;54700;51.796;10.956;2024-03-25T15:19:56;7.90;57.70
67901;DHT22;54700;51.796;10.956;2024-03-25T15:22:22;7.90;57.20
67901;DHT22;54700;51.796;10.956;2024-03-25T15:24:48;7.90;57.80
67901;DHT22;54700;51.796;10.956;2024-03-25T15:27:14;7.90;57.80